Time;durP1;ratioP1;P1;durP2;ratioP2;P2;SDS_P1;SDS_P2;PMS_P1;PMS_P2;Temp;Humidity;BMP_temperature;BMP_pressure;BME280_temperature;BME280_humidity;BME280_pressure;Samples;Min_cycle;Max_cycle;Signal;HPM_P1;HPM_P2
2023/08/30 00:02:27;;;;;;;9.77;7.47;;;;;;;;;;5054377;28;20081;-57
2023/08/30 00:04:59;;;;;;;10.88;7.72;;;;;;;;;;5054440;28;20498;-57
2023/08/30 00:07:26;;;;;;;10.68;8.15;;;;;;;;;;5054374;28;20095;-53
2023/08/30 00:09:52;;;;;;;10.60;8.57;;;;;;;;;;5054560;28;20049;-54
2023/08/30 00:12:19;;;;;;;10.32;7.90;;;;;;;;;;5042107;28;20482;-57
2023/08/30 00:14:46;;;;;;;11.07;8.25;;;;;;;;;;5046496;28;20127;-56
2023/08/30 00:17:12;;;;;;;11.25;7.95;;;;;;;;;;5045799;28;20041;-56
2023/08/30 00:19:40;;;;;;;11.65;7.63;;;;;;;;;;5054442;28;20489;-57
2023/08/30 00:22:08;;;;;;;10.50;7.72;;;;;;;;;;5047853;28;20124;-56
2023/08/30 00:24:34;;;;;;;10.10;7.50;;;;;;;;;;5039255;28;20045;-57
2023/08/30 00:27:01;;;;;;;10.70;7.93;;;;;;;;;;5041854;28;20498;-57
2023/08/30 00:29:28;;;;;;;10.63;8.43;;;;;;;;;;5045490;28;20471;-59
2023/08/30 00:31:55;;;;;;;10.57;7.82;;;;;;;;;;5053772;28;20040;-56
2023/08/30 00:34:21;;;;;;;9.40;6.75;;;;;;;;;;5043800;28;20476;-55
2023/08/30 00:36:49;;;;;;;9.75;7.80;;;;;;;;;;5033537;28;20041;-58
2023/08/30 00:39:16;;;;;;;10.25;8.15;;;;;;;;;;5033829;28;20441;-55
2023/08/30 00:41:43;;;;;;;11.23;8.13;;;;;;;;;;5033968;28;20403;-57
2023/08/30 00:44:11;;;;;;;9.45;6.88;;;;;;;;;;5033895;28;20042;-55
2023/08/30 00:46:38;;;;;;;9.80;6.57;;;;;;;;;;5033635;28;20518;-50
2023/08/30 00:49:05;;;;;;;10.40;8.25;;;;;;;;;;5033921;28;20099;-55
2023/08/30 00:51:33;;;;;;;10.07;7.53;;;;;;;;;;5029605;28;20217;-57
2023/08/30 00:54:02;;;;;;;9.82;7.45;;;;;;;;;;5041806;28;20042;-57
2023/08/30 00:56:29;;;;;;;9.38;7.07;;;;;;;;;;5052918;28;20049;-55
2023/08/30 00:58:56;;;;;;;10.35;7.35;;;;;;;;;;5039158;28;20141;-55
2023/08/30 01:01:23;;;;;;;11.88;7.95;;;;;;;;;;5044060;28;20500;-57
2023/08/30 01:03:50;;;;;;;9.57;7.82;;;;;;;;;;5047970;28;20045;-56
2023/08/30 01:06:17;;;;;;;9.57;7.28;;;;;;;;;;5048115;28;20486;-54
2023/08/30 01:08:44;;;;;;;10.70;7.60;;;;;;;;;;5045479;28;20133;-51
2023/08/30 01:11:19;;;;;;;9.43;6.90;;;;;;;;;;5034799;28;20113;-56
2023/08/30 01:13:51;;;;;;;10.55;7.97;;;;;;;;;;5045201;28;20100;-55
2023/08/30 01:16:20;;;;;;;9.45;6.90;;;;;;;;;;5053464;28;20458;-57
2023/08/30 01:18:47;;;;;;;9.35;7.47;;;;;;;;;;5053304;28;20544;-56
2023/08/30 01:21:28;;;;;;;9.80;7.03;;;;;;;;;;5047171;28;20433;-57
2023/08/30 01:24:00;;;;;;;8.80;6.93;;;;;;;;;;5032829;28;20099;-57
2023/08/30 01:26:40;;;;;;;9.90;7.60;;;;;;;;;;5032435;28;20328;-57
2023/08/30 01:29:12;;;;;;;8.82;6.68;;;;;;;;;;5016743;28;20522;-56
2023/08/30 01:31:41;;;;;;;9.30;7.30;;;;;;;;;;5039594;28;20128;-55
2023/08/30 01:34:07;;;;;;;9.45;7.32;;;;;;;;;;5041620;28;20488;-57
2023/08/30 01:36:35;;;;;;;9.20;6.57;;;;;;;;;;5036253;28;20145;-57
2023/08/30 01:39:04;;;;;;;8.98;6.57;;;;;;;;;;5053064;28;20122;-56
2023/08/30 01:41:32;;;;;;;9.13;7.13;;;;;;;;;;5044072;28;20048;-54
2023/08/30 01:43:59;;;;;;;9.45;6.78;;;;;;;;;;5048175;28;20055;-52
2023/08/30 01:46:28;;;;;;;8.90;6.65;;;;;;;;;;5052501;28;20045;-57
2023/08/30 01:48:55;;;;;;;10.10;7.40;;;;;;;;;;5052498;28;20136;-55
2023/08/30 01:51:21;;;;;;;9.18;7.18;;;;;;;;;;5049805;28;20135;-58
2023/08/30 01:53:52;;;;;;;9.50;7.10;;;;;;;;;;5032592;28;20414;-56
2023/08/30 01:56:18;;;;;;;;;;;;;;;;;;5035974;28;20045;-55
2023/08/30 01:58:45;;;;;;;9.00;6.13;;;;;;;;;;5045503;28;19920;-57
2023/08/30 02:01:12;;;;;;;10.05;6.97;;;;;;;;;;5043830;28;20486;-58
2023/08/30 02:03:40;;;;;;;9.68;6.97;;;;;;;;;;5040422;28;20048;-55
2023/08/30 02:06:12;;;;;;;8.15;5.75;;;;;;;;;;5047992;28;20049;-54
2023/08/30 02:08:42;;;;;;;8.43;6.30;;;;;;;;;;5031391;28;20140;-53
2023/08/30 02:11:14;;;;;;;8.65;6.30;;;;;;;;;;5032607;28;20041;-52
2023/08/30 02:13:43;;;;;;;8.43;5.85;;;;;;;;;;5032393;28;20079;-53
2023/08/30 02:16:11;;;;;;;7.43;5.28;;;;;;;;;;5036977;28;20046;-56
2023/08/30 02:18:40;;;;;;;8.02;5.90;;;;;;;;;;5025397;28;20463;-57
2023/08/30 02:21:07;;;;;;;8.50;6.13;;;;;;;;;;5031651;28;20136;-53
2023/08/30 02:23:34;;;;;;;8.93;6.68;;;;;;;;;;5031921;28;20045;-55
2023/08/30 02:26:02;;;;;;;7.10;5.93;;;;;;;;;;5032080;28;20511;-53
2023/08/30 02:28:30;;;;;;;8.27;6.32;;;;;;;;;;5031945;28;20391;-54
2023/08/30 02:30:56;;;;;;;8.50;6.03;;;;;;;;;;5032139;28;20158;-52
2023/08/30 02:33:23;;;;;;;8.85;6.90;;;;;;;;;;5031863;28;20136;-55
2023/08/30 02:35:51;;;;;;;8.15;6.20;;;;;;;;;;5036232;28;20231;-56
2023/08/30 02:38:17;;;;;;;7.53;6.03;;;;;;;;;;5035563;28;20489;-56
2023/08/30 02:40:44;;;;;;;7.85;6.13;;;;;;;;;;5031702;28;20049;-56
2023/08/30 02:43:10;;;;;;;7.53;6.25;;;;;;;;;;5031649;28;20053;-57
2023/08/30 02:45:37;;;;;;;8.15;6.00;;;;;;;;;;5031398;28;20073;-55
2023/08/30 02:48:04;;;;;;;8.40;6.07;;;;;;;;;;5038138;28;20056;-57
2023/08/30 02:50:31;;;;;;;9.25;6.13;;;;;;;;;;5032142;28;20533;-52
2023/08/30 02:52:59;;;;;;;7.50;5.70;;;;;;;;;;5031565;28;20389;-51
2023/08/30 02:55:25;;;;;;;8.45;6.50;;;;;;;;;;5031635;28;20056;-53
2023/08/30 02:57:52;;;;;;;8.90;6.35;;;;;;;;;;5031753;28;20140;-53
2023/08/30 03:00:19;;;;;;;7.82;5.97;;;;;;;;;;5031554;28;20056;-51
2023/08/30 03:02:45;;;;;;;9.48;6.38;;;;;;;;;;5031199;28;20453;-53
2023/08/30 03:05:12;;;;;;;7.53;5.60;;;;;;;;;;5031453;28;20045;-53
2023/08/30 03:07:39;;;;;;;7.35;5.63;;;;;;;;;;5031653;28;20410;-51
2023/08/30 03:10:08;;;;;;;8.95;6.22;;;;;;;;;;5031781;28;20052;-55
2023/08/30 03:12:34;;;;;;;7.72;5.70;;;;;;;;;;5031501;28;20053;-50
2023/08/30 03:15:01;;;;;;;10.88;6.07;;;;;;;;;;5031485;28;20518;-52
2023/08/30 03:17:28;;;;;;;8.63;6.68;;;;;;;;;;5031509;28;20479;-50
2023/08/30 03:19:54;;;;;;;8.52;6.35;;;;;;;;;;5031529;28;20425;-56
2023/08/30 03:22:21;;;;;;;8.10;6.05;;;;;;;;;;5030042;28;20136;-53
2023/08/30 03:24:49;;;;;;;7.90;5.90;;;;;;;;;;5031386;28;20048;-50
2023/08/30 03:27:19;;;;;;;9.07;6.15;;;;;;;;;;5031268;28;20046;-54
2023/08/30 03:29:45;;;;;;;7.63;5.57;;;;;;;;;;5031253;28;20080;-55
2023/08/30 03:32:17;;;;;;;7.95;5.82;;;;;;;;;;5031189;28;20092;-52
2023/08/30 03:34:45;;;;;;;7.75;6.10;;;;;;;;;;5030871;28;20144;-55
2023/08/30 03:37:12;;;;;;;7.93;6.05;;;;;;;;;;5031238;28;20052;-54
2023/08/30 03:39:38;;;;;;;8.27;5.75;;;;;;;;;;5031156;28;20046;-57
2023/08/30 03:42:05;;;;;;;7.45;5.35;;;;;;;;;;5030777;28;20049;-50
2023/08/30 03:44:33;;;;;;;7.93;5.72;;;;;;;;;;5030612;28;20386;-51
2023/08/30 03:47:00;;;;;;;7.72;5.70;;;;;;;;;;5031208;28;20471;-52
2023/08/30 03:49:27;;;;;;;8.38;5.82;;;;;;;;;;5031096;28;20045;-54
2023/08/30 03:51:53;;;;;;;8.48;5.70;;;;;;;;;;5030959;28;20112;-53
2023/08/30 03:54:20;;;;;;;8.85;5.90;;;;;;;;;;5030053;28;20049;-49
2023/08/30 03:56:46;;;;;;;7.00;5.55;;;;;;;;;;5030898;28;20053;-53
2023/08/30 03:59:13;;;;;;;8.60;5.95;;;;;;;;;;5030986;28;20046;-54
2023/08/30 04:01:41;;;;;;;9.10;5.70;;;;;;;;;;5030959;28;20137;-50
2023/08/30 04:04:08;;;;;;;9.05;5.90;;;;;;;;;;5031108;28;20077;-54
2023/08/30 04:06:34;;;;;;;7.30;5.43;;;;;;;;;;5034401;28;20055;-51
2023/08/30 04:09:01;;;;;;;7.28;5.70;;;;;;;;;;5034636;28;20045;-56
2023/08/30 04:11:27;;;;;;;8.43;5.63;;;;;;;;;;5034361;28;20495;-53
2023/08/30 04:13:54;;;;;;;8.32;6.55;;;;;;;;;;5034300;28;20058;-50
2023/08/30 04:16:20;;;;;;;8.95;6.63;;;;;;;;;;5034006;28;20133;-50
2023/08/30 04:18:48;;;;;;;8.35;6.03;;;;;;;;;;5034243;28;20648;-50
2023/08/30 04:21:15;;;;;;;8.50;5.65;;;;;;;;;;5033951;28;20084;-50
2023/08/30 04:23:41;;;;;;;7.72;5.78;;;;;;;;;;5033996;28;20046;-55
2023/08/30 04:26:08;;;;;;;6.78;5.25;;;;;;;;;;5034036;28;20041;-52
2023/08/30 04:28:35;;;;;;;7.88;6.07;;;;;;;;;;5034000;28;20049;-50
2023/08/30 04:31:02;;;;;;;7.57;5.50;;;;;;;;;;5033691;28;20045;-51
2023/08/30 04:33:28;;;;;;;7.55;5.90;;;;;;;;;;5033934;28;20049;-53
2023/08/30 04:35:57;;;;;;;7.28;5.45;;;;;;;;;;5034245;28;20140;-53
2023/08/30 04:38:24;;;;;;;7.25;5.10;;;;;;;;;;5033577;28;20052;-51
2023/08/30 04:40:50;;;;;;;8.15;5.57;;;;;;;;;;5034147;28;20045;-50
2023/08/30 04:43:17;;;;;;;7.40;5.72;;;;;;;;;;5033878;28;20378;-54
2023/08/30 04:45:43;;;;;;;8.27;5.50;;;;;;;;;;5033123;28;20041;-51
2023/08/30 04:48:10;;;;;;;8.18;5.78;;;;;;;;;;5033499;28;20045;-50
2023/08/30 04:50:37;;;;;;;8.23;5.70;;;;;;;;;;5033765;28;20810;-51
2023/08/30 04:53:05;;;;;;;8.38;6.07;;;;;;;;;;5033564;28;20469;-55
2023/08/30 04:55:32;;;;;;;8.43;5.53;;;;;;;;;;5033762;28;20077;-52
2023/08/30 04:57:58;;;;;;;7.90;5.53;;;;;;;;;;5033667;28;20049;-54
2023/08/30 05:00:25;;;;;;;8.02;5.97;;;;;;;;;;5033647;28;20528;-50
2023/08/30 05:02:52;;;;;;;8.07;5.78;;;;;;;;;;5033380;28;20054;-53
2023/08/30 05:05:18;;;;;;;8.63;6.20;;;;;;;;;;5033707;28;20406;-51
2023/08/30 05:07:45;;;;;;;8.48;6.00;;;;;;;;;;5032570;28;20045;-55
2023/08/30 05:10:13;;;;;;;8.98;6.75;;;;;;;;;;5033461;28;20137;-51
2023/08/30 05:12:40;;;;;;;8.93;6.60;;;;;;;;;;5033889;28;20049;-56
2023/08/30 05:15:08;;;;;;;9.88;6.82;;;;;;;;;;5032640;28;20045;-56
2023/08/30 05:17:34;;;;;;;9.05;6.55;;;;;;;;;;5032721;28;20056;-57
2023/08/30 05:20:01;;;;;;;8.30;6.05;;;;;;;;;;5033377;28;20045;-53
2023/08/30 05:22:27;;;;;;;8.65;6.60;;;;;;;;;;5065548;22;20583;-52
2023/08/30 05:24:54;;;;;;;8.05;5.93;;;;;;;;;;5093695;28;20048;-57
2023/08/30 05:27:22;;;;;;;9.23;6.15;;;;;;;;;;5088605;28;20511;-56
2023/08/30 05:29:48;;;;;;;8.85;6.70;;;;;;;;;;5093010;28;20046;-56
2023/08/30 05:32:15;;;;;;;8.38;6.38;;;;;;;;;;5092953;28;20492;-56
2023/08/30 05:34:42;;;;;;;7.80;5.47;;;;;;;;;;5090012;28;20044;-53
2023/08/30 05:37:08;;;;;;;7.75;5.53;;;;;;;;;;5092660;28;20048;-55
2023/08/30 05:39:35;;;;;;;10.02;6.45;;;;;;;;;;5092983;28;20040;-55
2023/08/30 05:42:02;;;;;;;7.68;6.53;;;;;;;;;;5093144;28;20044;-56
2023/08/30 05:44:30;;;;;;;8.00;6.00;;;;;;;;;;5093020;28;20051;-58
2023/08/30 05:46:57;;;;;;;8.68;6.05;;;;;;;;;;5091671;28;20131;-57
2023/08/30 05:49:24;;;;;;;7.30;5.45;;;;;;;;;;5092719;28;20044;-58
2023/08/30 05:51:50;;;;;;;8.43;6.22;;;;;;;;;;5083999;28;20511;-56
2023/08/30 05:54:17;;;;;;;7.57;5.75;;;;;;;;;;5092666;28;20048;-56
2023/08/30 05:56:43;;;;;;;8.45;5.65;;;;;;;;;;5088976;28;20047;-58
2023/08/30 05:59:10;;;;;;;8.55;5.93;;;;;;;;;;5090798;28;20556;-57
2023/08/30 06:01:38;;;;;;;7.60;5.40;;;;;;;;;;5092255;28;20143;-54
2023/08/30 06:04:05;;;;;;;8.75;5.93;;;;;;;;;;5092494;28;20082;-56
2023/08/30 06:06:32;;;;;;;8.73;5.60;;;;;;;;;;5092273;28;20044;-58
2023/08/30 06:08:59;;;;;;;7.07;5.43;;;;;;;;;;5091232;28;20044;-57
2023/08/30 06:11:25;;;;;;;8.15;6.13;;;;;;;;;;5092091;28;20043;-54
2023/08/30 06:13:52;;;;;;;7.55;5.63;;;;;;;;;;5092181;28;20049;-56
2023/08/30 06:16:18;;;;;;;8.18;5.65;;;;;;;;;;5092100;28;20043;-57
2023/08/30 06:18:46;;;;;;;7.78;5.93;;;;;;;;;;5092015;28;20043;-58
2023/08/30 06:21:13;;;;;;;7.57;5.60;;;;;;;;;;5091585;28;20044;-56
2023/08/30 06:23:39;;;;;;;8.30;5.80;;;;;;;;;;5091970;28;20054;-57
2023/08/30 06:26:06;;;;;;;8.18;5.82;;;;;;;;;;5092144;28;20131;-57
2023/08/30 06:28:33;;;;;;;8.30;5.38;;;;;;;;;;5091605;28;20066;-58
2023/08/30 06:30:59;;;;;;;8.98;5.55;;;;;;;;;;5091392;28;20126;-54
2023/08/30 06:33:26;;;;;;;8.75;5.95;;;;;;;;;;5091847;28;20052;-56
2023/08/30 06:35:56;;;;;;;8.82;5.68;;;;;;;;;;5092148;28;20401;-57
2023/08/30 06:38:22;;;;;;;8.13;6.13;;;;;;;;;;5090908;28;20044;-58
2023/08/30 06:40:49;;;;;;;7.75;5.60;;;;;;;;;;5091459;28;20114;-54
2023/08/30 06:43:16;;;;;;;7.18;5.40;;;;;;;;;;5091793;28;20132;-55
2023/08/30 06:45:42;;;;;;;7.75;6.15;;;;;;;;;;5088502;28;20047;-54
2023/08/30 06:48:09;;;;;;;8.13;5.60;;;;;;;;;;5090044;28;20040;-57
2023/08/30 06:50:36;;;;;;;8.80;5.75;;;;;;;;;;5084334;28;20041;-58
2023/08/30 06:53:04;;;;;;;8.02;6.32;;;;;;;;;;5086490;28;20040;-58
2023/08/30 06:55:31;;;;;;;7.85;5.50;;;;;;;;;;5084162;28;20507;-57
2023/08/30 06:57:58;;;;;;;9.18;6.55;;;;;;;;;;5082299;28;20048;-58
2023/08/30 07:00:24;;;;;;;8.60;6.22;;;;;;;;;;5086629;28;20044;-58
2023/08/30 07:02:51;;;;;;;7.78;5.65;;;;;;;;;;5083205;28;20051;-51
2023/08/30 07:05:18;;;;;;;7.85;5.75;;;;;;;;;;5091677;28;20385;-56
2023/08/30 07:07:44;;;;;;;7.22;5.20;;;;;;;;;;5091702;28;20040;-58
2023/08/30 07:10:12;;;;;;;6.88;4.90;;;;;;;;;;5091563;28;20064;-57
2023/08/30 07:12:39;;;;;;;6.95;5.57;;;;;;;;;;5091824;28;20489;-56
2023/08/30 07:15:06;;;;;;;6.85;5.30;;;;;;;;;;5083558;28;20170;-58
2023/08/30 07:17:33;;;;;;;7.63;5.50;;;;;;;;;;5087122;28;20056;-55
2023/08/30 07:20:00;;;;;;;7.60;5.82;;;;;;;;;;5091327;28;20135;-56
2023/08/30 07:22:27;;;;;;;7.30;5.57;;;;;;;;;;5088317;28;20204;-53
2023/08/30 07:24:54;;;;;;;9.55;6.63;;;;;;;;;;5087813;28;20404;-57
2023/08/30 07:27:22;;;;;;;9.98;6.80;;;;;;;;;;5082619;28;20051;-56
2023/08/30 07:29:48;;;;;;;7.72;6.15;;;;;;;;;;5087829;28;20704;-53
2023/08/30 07:32:15;;;;;;;8.60;6.13;;;;;;;;;;5080054;28;20125;-58
2023/08/30 07:34:41;;;;;;;9.02;6.10;;;;;;;;;;5078424;28;20114;-56
2023/08/30 07:37:18;;;;;;;8.88;6.78;;;;;;;;;;5082222;28;20047;-61
2023/08/30 07:39:45;;;;;;;8.85;6.40;;;;;;;;;;5088433;28;20040;-62
2023/08/30 07:42:11;;;;;;;8.32;6.20;;;;;;;;;;5091570;28;20043;-57
2023/08/30 07:44:39;;;;;;;10.98;7.50;;;;;;;;;;5091039;28;20050;-51
2023/08/30 07:47:06;;;;;;;8.20;6.30;;;;;;;;;;5091248;28;20059;-52
2023/08/30 07:49:32;;;;;;;8.93;6.78;;;;;;;;;;5088208;28;20130;-57
2023/08/30 07:51:59;;;;;;;8.68;7.00;;;;;;;;;;5081746;28;20051;-57
2023/08/30 07:54:25;;;;;;;9.38;6.07;;;;;;;;;;5081287;28;20040;-54
2023/08/30 07:56:52;;;;;;;9.65;6.78;;;;;;;;;;5086100;28;20130;-57
2023/08/30 07:59:19;;;;;;;8.95;6.35;;;;;;;;;;5087081;28;20048;-57
2023/08/30 08:01:47;;;;;;;7.55;6.07;;;;;;;;;;5089414;28;20048;-55
2023/08/30 08:04:13;;;;;;;9.90;6.68;;;;;;;;;;5087845;28;20055;-56
2023/08/30 08:06:40;;;;;;;9.13;7.05;;;;;;;;;;5082220;28;20367;-54
2023/08/30 08:09:07;;;;;;;8.63;6.70;;;;;;;;;;5088071;28;20048;-56
2023/08/30 08:11:34;;;;;;;8.00;6.57;;;;;;;;;;5089733;28;20040;-56
2023/08/30 08:14:00;;;;;;;8.82;6.85;;;;;;;;;;5085834;28;20051;-57
2023/08/30 08:16:27;;;;;;;8.93;7.38;;;;;;;;;;5086070;28;20127;-55
2023/08/30 08:18:55;;;;;;;9.18;6.80;;;;;;;;;;5083061;28;20044;-56
2023/08/30 08:21:21;;;;;;;10.63;7.47;;;;;;;;;;5089390;28;20048;-58
2023/08/30 08:23:49;;;;;;;10.35;6.97;;;;;;;;;;5090207;28;20040;-58
2023/08/30 08:26:16;;;;;;;10.50;7.28;;;;;;;;;;5088585;28;20055;-58
2023/08/30 08:28:42;;;;;;;8.63;6.30;;;;;;;;;;5086351;28;20055;-57
2023/08/30 08:31:09;;;;;;;10.20;7.43;;;;;;;;;;5086669;28;20488;-58
2023/08/30 08:33:35;;;;;;;8.60;6.88;;;;;;;;;;5087908;28;20585;-58
2023/08/30 08:36:04;;;;;;;9.82;7.60;;;;;;;;;;5083062;28;20056;-52
2023/08/30 08:38:30;;;;;;;9.93;7.60;;;;;;;;;;5079522;28;20488;-56
2023/08/30 08:41:03;;;;;;;9.73;8.05;;;;;;;;;;5084806;28;20135;-60
2023/08/30 08:43:30;;;;;;;9.88;7.68;;;;;;;;;;5086978;28;20406;-56
2023/08/30 08:46:01;;;;;;;10.57;8.60;;;;;;;;;;5086671;28;20045;-57
2023/08/30 08:48:29;;;;;;;10.02;8.02;;;;;;;;;;5087727;28;20501;-54
2023/08/30 08:50:57;;;;;;;8.43;6.90;;;;;;;;;;5078191;28;20482;-57
2023/08/30 08:53:25;;;;;;;9.50;7.03;;;;;;;;;;5086022;28;20070;-55
2023/08/30 08:55:53;;;;;;;9.95;8.20;;;;;;;;;;5085301;28;20051;-58
2023/08/30 08:58:19;;;;;;;8.20;6.82;;;;;;;;;;5084075;28;20040;-58
2023/08/30 09:00:46;;;;;;;10.32;8.77;;;;;;;;;;5080010;28;20153;-55
2023/08/30 09:03:13;;;;;;;8.60;7.22;;;;;;;;;;5086183;28;20132;-58
2023/08/30 09:05:41;;;;;;;9.18;6.70;;;;;;;;;;5090571;28;20135;-58
2023/08/30 09:08:08;;;;;;;8.15;6.90;;;;;;;;;;5090331;28;20135;-57
2023/08/30 09:10:35;;;;;;;8.43;7.03;;;;;;;;;;5090267;28;20048;-58
2023/08/30 09:13:02;;;;;;;8.48;7.05;;;;;;;;;;5090270;28;20048;-57
2023/08/30 09:15:32;;;;;;;9.10;7.32;;;;;;;;;;5086463;28;20044;-57
2023/08/30 09:17:59;;;;;;;9.45;7.53;;;;;;;;;;5090302;28;20509;-53
2023/08/30 09:20:26;;;;;;;7.85;6.07;;;;;;;;;;5090216;28;20044;-58
2023/08/30 09:22:52;;;;;;;7.65;6.38;;;;;;;;;;5086120;28;20516;-57
2023/08/30 09:25:26;;;;;;;8.77;6.57;;;;;;;;;;5090213;28;20063;-58
2023/08/30 09:28:00;;;;;;;7.57;6.47;;;;;;;;;;5089544;28;20050;-57
2023/08/30 09:30:27;;;;;;;6.45;5.47;;;;;;;;;;5089738;28;20040;-58
2023/08/30 09:32:53;;;;;;;6.40;5.03;;;;;;;;;;5090243;28;20519;-57
2023/08/30 09:35:20;;;;;;;8.38;5.47;;;;;;;;;;5089817;28;20058;-56
2023/08/30 09:37:47;;;;;;;6.72;5.05;;;;;;;;;;5089591;28;20048;-57
2023/08/30 09:40:19;;;;;;;7.38;5.03;;;;;;;;;;5089169;28;20063;-59
2023/08/30 09:42:46;;;;;;;6.97;4.50;;;;;;;;;;5089211;28;20138;-54
2023/08/30 09:45:22;;;;;;;5.10;4.10;;;;;;;;;;5083122;28;20131;-57
2023/08/30 09:47:49;;;;;;;5.47;4.40;;;;;;;;;;5089587;28;20499;-58
2023/08/30 09:50:18;;;;;;;5.43;4.07;;;;;;;;;;5089706;28;20489;-58
2023/08/30 09:52:46;;;;;;;5.40;4.03;;;;;;;;;;5089268;28;20132;-54
2023/08/30 09:55:12;;;;;;;3.78;2.70;;;;;;;;;;5089645;28;20495;-53
2023/08/30 09:57:40;;;;;;;4.32;2.92;;;;;;;;;;5086722;28;20044;-55
2023/08/30 10:00:08;;;;;;;5.63;3.70;;;;;;;;;;5089321;28;20436;-55
2023/08/30 10:02:36;;;;;;;4.72;3.67;;;;;;;;;;5088501;28;20048;-56
2023/08/30 10:05:05;;;;;;;4.78;3.17;;;;;;;;;;5085619;28;20242;-51
2023/08/30 10:07:32;;;;;;;5.10;3.42;;;;;;;;;;5089246;28;20565;-58
2023/08/30 10:10:00;;;;;;;5.65;3.63;;;;;;;;;;5085999;28;20040;-56
2023/08/30 10:12:27;;;;;;;5.78;4.10;;;;;;;;;;5088624;28;20067;-57
2023/08/30 10:14:53;;;;;;;4.82;3.65;;;;;;;;;;5089229;28;20052;-58
2023/08/30 10:17:23;;;;;;;4.72;3.30;;;;;;;;;;5088965;28;20051;-55
2023/08/30 10:19:53;;;;;;;4.70;3.20;;;;;;;;;;5086064;28;20689;-57
2023/08/30 10:22:21;;;;;;;6.77;3.77;;;;;;;;;;5084896;28;20424;-56
2023/08/30 10:24:52;;;;;;;4.00;3.05;;;;;;;;;;5086976;28;20388;-57
2023/08/30 10:27:20;;;;;;;4.22;3.15;;;;;;;;;;5082414;28;21320;-58
2023/08/30 10:29:49;;;;;;;4.78;3.10;;;;;;;;;;5087556;28;20044;-58
2023/08/30 10:32:20;;;;;;;4.63;3.08;;;;;;;;;;5086378;28;20068;-58
2023/08/30 10:34:49;;;;;;;4.60;3.50;;;;;;;;;;5088796;28;20258;-57
2023/08/30 10:37:22;;;;;;;4.47;3.35;;;;;;;;;;5088965;28;20044;-58
2023/08/30 10:39:49;;;;;;;4.82;3.20;;;;;;;;;;5085327;28;20044;-57
2023/08/30 10:42:17;;;;;;;4.72;3.55;;;;;;;;;;5086822;28;20117;-58
2023/08/30 10:44:50;;;;;;;4.95;4.00;;;;;;;;;;5088470;28;20048;-56
2023/08/30 10:47:20;;;;;;;4.72;3.25;;;;;;;;;;5088829;28;20503;-56
2023/08/30 10:49:48;;;;;;;4.57;3.50;;;;;;;;;;5090107;28;20489;-52
2023/08/30 10:52:15;;;;;;;5.20;3.60;;;;;;;;;;5084752;28;20490;-54
2023/08/30 10:54:43;;;;;;;5.47;3.50;;;;;;;;;;5088511;28;20054;-53
2023/08/30 10:57:14;;;;;;;4.38;3.15;;;;;;;;;;5086069;28;20570;-56
2023/08/30 10:59:41;;;;;;;3.88;3.05;;;;;;;;;;5087816;28;20050;-57
2023/08/30 11:02:08;;;;;;;5.32;3.28;;;;;;;;;;5083058;28;20044;-58
2023/08/30 11:04:41;;;;;;;4.50;3.08;;;;;;;;;;5088802;28;20036;-57
2023/08/30 11:07:08;;;;;;;5.32;2.90;;;;;;;;;;5085072;28;20048;-57
2023/08/30 11:09:36;;;;;;;3.95;2.90;;;;;;;;;;5086870;28;20040;-57
2023/08/30 11:12:06;;;;;;;3.80;2.85;;;;;;;;;;5088916;28;20052;-55
2023/08/30 11:14:33;;;;;;;3.88;2.53;;;;;;;;;;5090102;28;20294;-55
2023/08/30 11:16:59;;;;;;;3.92;2.53;;;;;;;;;;5092343;28;20046;-56
2023/08/30 11:19:31;;;;;;;3.22;2.42;;;;;;;;;;5090621;28;20499;-57
2023/08/30 11:21:57;;;;;;;5.20;2.40;;;;;;;;;;5089433;28;20056;-56
2023/08/30 11:24:24;;;;;;;3.30;2.28;;;;;;;;;;5091460;28;20492;-57
2023/08/30 11:26:54;;;;;;;3.47;2.20;;;;;;;;;;5092384;28;20040;-56
2023/08/30 11:29:22;;;;;;;5.70;3.00;;;;;;;;;;5092471;28;20048;-57
2023/08/30 11:31:50;;;;;;;4.05;2.00;;;;;;;;;;5091986;28;20098;-58
2023/08/30 11:34:21;;;;;;;4.00;2.50;;;;;;;;;;5088678;28;20541;-55
2023/08/30 11:36:48;;;;;;;3.25;2.30;;;;;;;;;;5091838;28;20504;-58
2023/08/30 11:39:15;;;;;;;3.50;2.10;;;;;;;;;;5092181;28;20075;-55
2023/08/30 11:41:42;;;;;;;3.00;2.08;;;;;;;;;;5091772;28;20044;-58
2023/08/30 11:44:09;;;;;;;4.22;2.33;;;;;;;;;;5089513;28;20037;-57
2023/08/30 11:46:37;;;;;;;4.75;2.40;;;;;;;;;;5091772;28;20052;-57
2023/08/30 11:49:05;;;;;;;4.07;2.50;;;;;;;;;;5091753;28;20416;-57
2023/08/30 11:51:32;;;;;;;2.78;1.95;;;;;;;;;;5091231;28;20048;-58
2023/08/30 11:54:02;;;;;;;3.42;2.28;;;;;;;;;;5091874;28;20480;-58
2023/08/30 11:56:29;;;;;;;2.95;2.00;;;;;;;;;;5089907;28;20059;-58
2023/08/30 11:58:55;;;;;;;4.00;2.47;;;;;;;;;;5087404;28;20067;-58
2023/08/30 12:01:22;;;;;;;3.17;2.30;;;;;;;;;;5090028;28;20050;-53
2023/08/30 12:03:50;;;;;;;3.22;2.20;;;;;;;;;;5091650;28;20460;-55
2023/08/30 12:06:17;;;;;;;3.88;2.10;;;;;;;;;;5091264;28;20043;-55
2023/08/30 12:08:44;;;;;;;4.03;2.25;;;;;;;;;;5089708;28;20052;-57
2023/08/30 12:11:19;;;;;;;3.80;2.50;;;;;;;;;;5091369;28;20091;-58
2023/08/30 12:13:45;;;;;;;3.80;2.88;;;;;;;;;;5091227;28;20050;-57
2023/08/30 12:16:17;;;;;;;3.67;1.98;;;;;;;;;;5086184;28;20055;-57
2023/08/30 12:18:43;;;;;;;3.88;2.10;;;;;;;;;;5090733;28;20037;-56
2023/08/30 12:21:14;;;;;;;3.17;2.08;;;;;;;;;;5091407;28;20040;-57
2023/08/30 12:23:40;;;;;;;3.70;2.50;;;;;;;;;;5084270;28;20048;-55
2023/08/30 12:26:09;;;;;;;3.92;2.33;;;;;;;;;;5089238;28;20040;-58
2023/08/30 12:28:36;;;;;;;4.40;2.45;;;;;;;;;;5088698;28;20121;-57
2023/08/30 12:31:04;;;;;;;2.92;2.15;;;;;;;;;;5090449;28;20485;-57
2023/08/30 12:33:32;;;;;;;3.83;2.30;;;;;;;;;;5088698;28;20047;-57
2023/08/30 12:35:59;;;;;;;3.88;2.65;;;;;;;;;;5091011;28;20051;-58
2023/08/30 12:38:28;;;;;;;2.83;1.88;;;;;;;;;;5090613;28;20124;-57
2023/08/30 12:40:56;;;;;;;5.45;2.10;;;;;;;;;;5090919;28;20043;-57
2023/08/30 12:43:23;;;;;;;3.75;1.65;;;;;;;;;;5090579;28;20051;-56
2023/08/30 12:45:51;;;;;;;3.67;2.15;;;;;;;;;;5088596;28;20044;-57
2023/08/30 12:48:18;;;;;;;2.90;2.03;;;;;;;;;;5090694;28;20475;-56
2023/08/30 12:50:46;;;;;;;3.05;1.60;;;;;;;;;;5089366;28;20044;-55
2023/08/30 12:53:13;;;;;;;2.83;1.70;;;;;;;;;;5090455;28;20044;-58
2023/08/30 12:55:41;;;;;;;2.70;1.85;;;;;;;;;;5088256;28;21590;-58
2023/08/30 12:58:09;;;;;;;2.53;1.70;;;;;;;;;;5084170;28;20127;-58
2023/08/30 13:00:36;;;;;;;3.20;1.70;;;;;;;;;;5086893;28;20046;-58
2023/08/30 13:03:03;;;;;;;3.03;1.80;;;;;;;;;;5088888;28;20052;-58
2023/08/30 13:05:31;;;;;;;2.50;1.67;;;;;;;;;;5088088;28;20056;-58
2023/08/30 13:07:58;;;;;;;27.38;12.32;;;;;;;;;;5081932;28;20516;-62
2023/08/30 13:10:25;;;;;;;15.18;8.20;;;;;;;;;;5084017;28;20139;-62
2023/08/30 13:12:53;;;;;;;32.05;16.65;;;;;;;;;;5079292;28;20063;-56
2023/08/30 13:15:20;;;;;;;14.02;8.00;;;;;;;;;;5080762;28;20048;-58
2023/08/30 13:17:46;;;;;;;13.30;8.55;;;;;;;;;;5088526;28;20126;-55
2023/08/30 13:20:13;;;;;;;25.15;13.25;;;;;;;;;;5088295;28;20062;-57
2023/08/30 13:22:39;;;;;;;11.52;6.20;;;;;;;;;;5086802;28;20040;-55
2023/08/30 13:25:07;;;;;;;15.73;8.60;;;;;;;;;;5089559;28;20515;-55
2023/08/30 13:27:34;;;;;;;11.75;6.05;;;;;;;;;;5088544;28;20122;-57
2023/08/30 13:30:02;;;;;;;40.13;19.98;;;;;;;;;;5087671;28;20076;-53
2023/08/30 13:32:29;;;;;;;16.25;8.68;;;;;;;;;;5085886;28;20135;-57
2023/08/30 13:34:55;;;;;;;9.63;4.85;;;;;;;;;;5077122;28;20062;-53
2023/08/30 13:37:23;;;;;;;15.25;8.35;;;;;;;;;;5079861;28;20040;-57
2023/08/30 13:39:50;;;;;;;9.57;5.53;;;;;;;;;;5080320;28;20512;-57
2023/08/30 13:42:16;;;;;;;6.25;4.50;;;;;;;;;;5086871;28;20125;-57
2023/08/30 13:44:43;;;;;;;7.78;4.57;;;;;;;;;;5089601;28;20053;-57
2023/08/30 13:47:11;;;;;;;6.53;3.80;;;;;;;;;;5086142;28;20469;-58
2023/08/30 13:49:38;;;;;;;11.27;6.80;;;;;;;;;;5089854;28;20044;-56
2023/08/30 13:52:05;;;;;;;5.22;3.47;;;;;;;;;;5089268;28;20044;-58
2023/08/30 13:54:32;;;;;;;7.20;4.93;;;;;;;;;;5090149;28;20555;-58
2023/08/30 13:56:58;;;;;;;7.68;4.15;;;;;;;;;;5085426;28;20511;-58
2023/08/30 13:59:25;;;;;;;11.70;6.43;;;;;;;;;;5087156;28;20043;-58
2023/08/30 14:01:52;;;;;;;7.32;4.40;;;;;;;;;;5088938;28;20123;-56
2023/08/30 14:04:19;;;;;;;5.85;3.70;;;;;;;;;;5088479;28;20040;-55
2023/08/30 14:06:46;;;;;;;6.63;3.72;;;;;;;;;;5087468;28;20036;-58
2023/08/30 14:09:13;;;;;;;6.63;4.18;;;;;;;;;;5086174;28;20044;-53
2023/08/30 14:11:41;;;;;;;8.52;4.68;;;;;;;;;;5089265;28;20040;-52
2023/08/30 14:14:08;;;;;;;12.48;7.25;;;;;;;;;;5086679;28;20454;-58
2023/08/30 14:16:36;;;;;;;6.10;3.55;;;;;;;;;;5088804;28;20056;-57
2023/08/30 14:19:05;;;;;;;7.47;3.88;;;;;;;;;;5082831;28;20130;-56
2023/08/30 14:21:33;;;;;;;8.52;4.40;;;;;;;;;;5084638;28;20127;-56
2023/08/30 14:24:00;;;;;;;5.88;3.00;;;;;;;;;;5088693;28;20147;-58
2023/08/30 14:26:27;;;;;;;7.93;4.03;;;;;;;;;;5081480;28;20050;-56
2023/08/30 14:28:53;;;;;;;4.53;2.97;;;;;;;;;;5084354;28;20040;-58
2023/08/30 14:31:20;;;;;;;5.50;3.05;;;;;;;;;;5089020;28;20505;-57
2023/08/30 14:33:47;;;;;;;6.78;2.90;;;;;;;;;;5088682;28;20047;-56
2023/08/30 14:36:15;;;;;;;7.25;2.80;;;;;;;;;;5087149;28;20050;-62
2023/08/30 14:38:43;;;;;;;4.70;2.60;;;;;;;;;;5083780;28;20044;-55
2023/08/30 14:41:10;;;;;;;4.82;2.30;;;;;;;;;;5084454;28;20484;-56
2023/08/30 14:43:36;;;;;;;3.70;2.40;;;;;;;;;;5085153;28;20040;-54